sensor_id;sensor_type;location;lat;lon;timestamp;temperature;humidity
1137;DHT22;557;48.466;7.950;2023-12-22T00:02:04;9.30;1.00
1137;DHT22;557;48.466;7.950;2023-12-22T00:04:31;9.40;1.00
1137;DHT22;557;48.466;7.950;2023-12-22T00:06:58;9.50;1.00
1137;DHT22;557;48.466;7.950;2023-12-22T00:09:24;9.60;99.90
1137;DHT22;557;48.466;7.950;2023-12-22T00:11:52;9.80;1.00
1137;DHT22;557;48.466;7.950;2023-12-22T00:14:18;9.90;1.00
1137;DHT22;557;48.466;7.950;2023-12-22T00:16:45;9.90;1.00
1137;DHT22;557;48.466;7.950;2023-12-22T00:19:12;10.00;99.90
1137;DHT22;557;48.466;7.950;2023-12-22T00:21:39;9.90;1.00
1137;DHT22;557;48.466;7.950;2023-12-22T00:24:06;10.00;1.00
1137;DHT22;557;48.466;7.950;2023-12-22T00:26:33;9.90;1.00
1137;DHT22;557;48.466;7.950;2023-12-22T00:29:01;9.90;45.20
1137;DHT22;557;48.466;7.950;2023-12-22T00:31:28;9.80;1.00
1137;DHT22;557;48.466;7.950;2023-12-22T00:33:54;9.80;99.90
1137;DHT22;557;48.466;7.950;2023-12-22T00:36:21;9.80;1.00
1137;DHT22;557;48.466;7.950;2023-12-22T00:38:50;9.70;1.00
1137;DHT22;557;48.466;7.950;2023-12-22T00:41:17;9.60;1.00
1137;DHT22;557;48.466;7.950;2023-12-22T00:43:43;9.60;1.00
1137;DHT22;557;48.466;7.950;2023-12-22T00:46:13;9.50;1.00
1137;DHT22;557;48.466;7.950;2023-12-22T00:48:40;9.40;99.90
1137;DHT22;557;48.466;7.950;2023-12-22T00:51:06;9.40;99.90
1137;DHT22;557;48.466;7.950;2023-12-22T00:53:33;9.30;99.90
1137;DHT22;557;48.466;7.950;2023-12-22T00:56:00;9.30;99.90
1137;DHT22;557;48.466;7.950;2023-12-22T00:58:28;9.30;99.90
1137;DHT22;557;48.466;7.950;2023-12-22T01:00:55;9.40;99.90
1137;DHT22;557;48.466;7.950;2023-12-22T01:03:23;9.30;99.90
1137;DHT22;557;48.466;7.950;2023-12-22T01:05:50;9.30;99.90
1137;DHT22;557;48.466;7.950;2023-12-22T01:08:17;9.40;99.90
1137;DHT22;557;48.466;7.950;2023-12-22T01:10:44;9.50;99.90
1137;DHT22;557;48.466;7.950;2023-12-22T01:13:11;9.50;99.90
1137;DHT22;557;48.466;7.950;2023-12-22T01:15:38;9.50;99.90
1137;DHT22;557;48.466;7.950;2023-12-22T01:18:04;9.50;99.90
1137;DHT22;557;48.466;7.950;2023-12-22T01:20:32;9.60;1.00
1137;DHT22;557;48.466;7.950;2023-12-22T01:22:59;9.70;1.00
1137;DHT22;557;48.466;7.950;2023-12-22T01:25:26;9.70;1.00
1137;DHT22;557;48.466;7.950;2023-12-22T01:27:53;9.70;1.00
1137;DHT22;557;48.466;7.950;2023-12-22T01:30:20;9.80;1.00
1137;DHT22;557;48.466;7.950;2023-12-22T01:32:46;9.80;99.90
1137;DHT22;557;48.466;7.950;2023-12-22T01:35:13;9.90;99.90
1137;DHT22;557;48.466;7.950;2023-12-22T01:37:41;9.90;99.90
1137;DHT22;557;48.466;7.950;2023-12-22T01:40:09;10.00;99.90
1137;DHT22;557;48.466;7.950;2023-12-22T01:42:35;9.90;99.90
1137;DHT22;557;48.466;7.950;2023-12-22T01:45:03;9.90;99.90
1137;DHT22;557;48.466;7.950;2023-12-22T01:47:30;9.90;99.90
1137;DHT22;557;48.466;7.950;2023-12-22T01:49:57;9.90;99.90
1137;DHT22;557;48.466;7.950;2023-12-22T01:52:24;9.90;55.00
1137;DHT22;557;48.466;7.950;2023-12-22T01:54:54;9.90;99.90
1137;DHT22;557;48.466;7.950;2023-12-22T01:57:21;9.90;1.00
1137;DHT22;557;48.466;7.950;2023-12-22T01:59:49;9.80;1.00
1137;DHT22;557;48.466;7.950;2023-12-22T02:02:16;9.80;99.90
1137;DHT22;557;48.466;7.950;2023-12-22T02:04:44;9.80;99.90
1137;DHT22;557;48.466;7.950;2023-12-22T02:07:11;9.70;1.00
1137;DHT22;557;48.466;7.950;2023-12-22T02:09:38;9.70;1.00
1137;DHT22;557;48.466;7.950;2023-12-22T02:12:07;9.70;99.90
1137;DHT22;557;48.466;7.950;2023-12-22T02:14:34;9.80;99.90
1137;DHT22;557;48.466;7.950;2023-12-22T02:17:08;9.80;79.80
1137;DHT22;557;48.466;7.950;2023-12-22T02:19:42;9.80;2.90
1137;DHT22;557;48.466;7.950;2023-12-22T02:22:10;9.80;99.90
1137;DHT22;557;48.466;7.950;2023-12-22T02:24:39;9.80;1.00
1137;DHT22;557;48.466;7.950;2023-12-22T02:27:13;9.90;1.00
1137;DHT22;557;48.466;7.950;2023-12-22T02:29:45;9.90;20.70
1137;DHT22;557;48.466;7.950;2023-12-22T02:32:21;9.90;1.00
1137;DHT22;557;48.466;7.950;2023-12-22T02:34:51;9.90;20.80
1137;DHT22;557;48.466;7.950;2023-12-22T02:37:20;9.90;99.90
1137;DHT22;557;48.466;7.950;2023-12-22T02:39:49;9.90;99.90
1137;DHT22;557;48.466;7.950;2023-12-22T02:42:17;9.80;89.50
1137;DHT22;557;48.466;7.950;2023-12-22T02:44:45;9.90;99.90
1137;DHT22;557;48.466;7.950;2023-12-22T02:47:12;9.90;99.90
1137;DHT22;557;48.466;7.950;2023-12-22T02:49:39;10.00;99.90
1137;DHT22;557;48.466;7.950;2023-12-22T02:52:07;10.10;1.00
1137;DHT22;557;48.466;7.950;2023-12-22T02:54:33;10.10;1.00
1137;DHT22;557;48.466;7.950;2023-12-22T02:57:02;10.10;1.00
1137;DHT22;557;48.466;7.950;2023-12-22T02:59:28;10.10;1.00
1137;DHT22;557;48.466;7.950;2023-12-22T03:01:55;10.00;99.90
1137;DHT22;557;48.466;7.950;2023-12-22T03:04:22;10.00;1.00
1137;DHT22;557;48.466;7.950;2023-12-22T03:06:49;9.90;1.00
1137;DHT22;557;48.466;7.950;2023-12-22T03:09:16;10.00;1.00
1137;DHT22;557;48.466;7.950;2023-12-22T03:11:42;10.00;1.00
1137;DHT22;557;48.466;7.950;2023-12-22T03:14:10;10.00;1.00
1137;DHT22;557;48.466;7.950;2023-12-22T03:16:37;9.90;99.90
1137;DHT22;557;48.466;7.950;2023-12-22T03:19:03;9.90;99.90
1137;DHT22;557;48.466;7.950;2023-12-22T03:21:30;9.80;1.00
1137;DHT22;557;48.466;7.950;2023-12-22T03:23:57;9.80;99.90
1137;DHT22;557;48.466;7.950;2023-12-22T03:26:26;9.90;99.90
1137;DHT22;557;48.466;7.950;2023-12-22T03:28:53;9.80;1.00
1137;DHT22;557;48.466;7.950;2023-12-22T03:31:21;9.80;1.00
1137;DHT22;557;48.466;7.950;2023-12-22T03:33:48;9.80;23.50
1137;DHT22;557;48.466;7.950;2023-12-22T03:36:14;9.70;99.90
1137;DHT22;557;48.466;7.950;2023-12-22T03:38:41;9.70;99.90
1137;DHT22;557;48.466;7.950;2023-12-22T03:41:08;9.70;99.90
1137;DHT22;557;48.466;7.950;2023-12-22T03:43:35;9.60;26.60
1137;DHT22;557;48.466;7.950;2023-12-22T03:46:02;9.60;99.90
1137;DHT22;557;48.466;7.950;2023-12-22T03:48:30;9.60;1.00
1137;DHT22;557;48.466;7.950;2023-12-22T03:50:57;9.60;99.90
1137;DHT22;557;48.466;7.950;2023-12-22T03:53:24;9.50;99.90
1137;DHT22;557;48.466;7.950;2023-12-22T03:55:51;9.50;99.90
1137;DHT22;557;48.466;7.950;2023-12-22T03:58:18;9.60;99.90
1137;DHT22;557;48.466;7.950;2023-12-22T04:00:44;9.60;99.90
1137;DHT22;557;48.466;7.950;2023-12-22T04:03:11;9.60;99.90
1137;DHT22;557;48.466;7.950;2023-12-22T04:05:39;9.60;99.90
1137;DHT22;557;48.466;7.950;2023-12-22T04:08:06;9.60;1.00
1137;DHT22;557;48.466;7.950;2023-12-22T04:10:33;9.70;99.90
1137;DHT22;557;48.466;7.950;2023-12-22T04:13:00;9.80;31.20
1137;DHT22;557;48.466;7.950;2023-12-22T04:15:27;9.90;1.00
1137;DHT22;557;48.466;7.950;2023-12-22T04:17:53;9.90;1.00
1137;DHT22;557;48.466;7.950;2023-12-22T04:20:20;10.00;1.00
1137;DHT22;557;48.466;7.950;2023-12-22T04:22:48;9.90;99.90
1137;DHT22;557;48.466;7.950;2023-12-22T04:25:15;9.90;1.00
1137;DHT22;557;48.466;7.950;2023-12-22T04:27:43;9.80;99.90
1137;DHT22;557;48.466;7.950;2023-12-22T04:30:11;9.90;15.40
1137;DHT22;557;48.466;7.950;2023-12-22T04:32:37;9.90;1.00
1137;DHT22;557;48.466;7.950;2023-12-22T04:35:05;9.90;99.90
1137;DHT22;557;48.466;7.950;2023-12-22T04:37:32;9.90;99.90
1137;DHT22;557;48.466;7.950;2023-12-22T04:40:00;9.90;99.90
1137;DHT22;557;48.466;7.950;2023-12-22T04:42:27;9.80;1.00
1137;DHT22;557;48.466;7.950;2023-12-22T04:44:54;9.90;99.90
1137;DHT22;557;48.466;7.950;2023-12-22T04:47:21;9.90;99.90
1137;DHT22;557;48.466;7.950;2023-12-22T04:49:48;9.90;99.90
1137;DHT22;557;48.466;7.950;2023-12-22T04:52:15;9.90;99.90
1137;DHT22;557;48.466;7.950;2023-12-22T04:54:41;9.90;99.90
1137;DHT22;557;48.466;7.950;2023-12-22T04:57:09;9.90;99.90
1137;DHT22;557;48.466;7.950;2023-12-22T04:59:36;9.90;1.00
1137;DHT22;557;48.466;7.950;2023-12-22T05:02:03;9.80;1.00
1137;DHT22;557;48.466;7.950;2023-12-22T05:04:30;9.80;1.00
1137;DHT22;557;48.466;7.950;2023-12-22T05:06:57;9.80;1.00
1137;DHT22;557;48.466;7.950;2023-12-22T05:09:23;9.80;1.00
1137;DHT22;557;48.466;7.950;2023-12-22T05:11:51;9.80;1.00
1137;DHT22;557;48.466;7.950;2023-12-22T05:14:19;9.80;77.90
1137;DHT22;557;48.466;7.950;2023-12-22T05:16:46;9.80;99.90
1137;DHT22;557;48.466;7.950;2023-12-22T05:19:13;9.80;1.00
1137;DHT22;557;48.466;7.950;2023-12-22T05:21:39;9.80;1.00
1137;DHT22;557;48.466;7.950;2023-12-22T05:24:06;9.80;1.00
1137;DHT22;557;48.466;7.950;2023-12-22T05:26:33;9.80;1.00
1137;DHT22;557;48.466;7.950;2023-12-22T05:29:00;9.80;99.90
1137;DHT22;557;48.466;7.950;2023-12-22T05:31:28;9.90;1.00
1137;DHT22;557;48.466;7.950;2023-12-22T05:33:56;9.90;99.90
1137;DHT22;557;48.466;7.950;2023-12-22T05:36:24;9.90;99.90
1137;DHT22;557;48.466;7.950;2023-12-22T05:38:51;9.80;99.90
1137;DHT22;557;48.466;7.950;2023-12-22T05:41:18;9.90;1.00
1137;DHT22;557;48.466;7.950;2023-12-22T05:43:45;9.80;1.00
1137;DHT22;557;48.466;7.950;2023-12-22T05:46:12;9.80;1.00
1137;DHT22;557;48.466;7.950;2023-12-22T05:48:40;9.90;99.90
1137;DHT22;557;48.466;7.950;2023-12-22T05:51:07;9.90;99.90
1137;DHT22;557;48.466;7.950;2023-12-22T05:53:39;9.90;1.00
1137;DHT22;557;48.466;7.950;2023-12-22T05:56:16;9.80;1.00
1137;DHT22;557;48.466;7.950;2023-12-22T05:58:43;9.80;1.00
1137;DHT22;557;48.466;7.950;2023-12-22T06:01:14;9.80;1.00
1137;DHT22;557;48.466;7.950;2023-12-22T06:03:42;9.80;1.00
1137;DHT22;557;48.466;7.950;2023-12-22T06:06:09;9.80;99.90
1137;DHT22;557;48.466;7.950;2023-12-22T06:08:37;9.80;1.00
1137;DHT22;557;48.466;7.950;2023-12-22T06:11:03;9.80;1.00
1137;DHT22;557;48.466;7.950;2023-12-22T06:13:30;9.80;1.00
1137;DHT22;557;48.466;7.950;2023-12-22T06:15:57;9.80;1.00
1137;DHT22;557;48.466;7.950;2023-12-22T06:18:24;9.80;1.00
1137;DHT22;557;48.466;7.950;2023-12-22T06:20:52;9.70;1.00
1137;DHT22;557;48.466;7.950;2023-12-22T06:23:20;9.70;1.00
1137;DHT22;557;48.466;7.950;2023-12-22T06:25:46;9.70;99.90
1137;DHT22;557;48.466;7.950;2023-12-22T06:28:13;9.80;99.90
1137;DHT22;557;48.466;7.950;2023-12-22T06:30:42;9.80;99.90
1137;DHT22;557;48.466;7.950;2023-12-22T06:33:09;9.70;1.00
1137;DHT22;557;48.466;7.950;2023-12-22T06:35:36;9.70;1.00
1137;DHT22;557;48.466;7.950;2023-12-22T06:38:07;9.70;93.90
1137;DHT22;557;48.466;7.950;2023-12-22T06:40:37;9.70;99.90
1137;DHT22;557;48.466;7.950;2023-12-22T06:43:04;9.60;99.90
1137;DHT22;557;48.466;7.950;2023-12-22T06:45:31;9.60;1.00
1137;DHT22;557;48.466;7.950;2023-12-22T06:47:57;9.60;99.90
1137;DHT22;557;48.466;7.950;2023-12-22T06:50:24;9.60;99.90
1137;DHT22;557;48.466;7.950;2023-12-22T06:52:51;9.60;99.90
1137;DHT22;557;48.466;7.950;2023-12-22T06:55:19;9.60;99.90
1137;DHT22;557;48.466;7.950;2023-12-22T06:57:46;9.60;99.90
1137;DHT22;557;48.466;7.950;2023-12-22T07:00:14;9.50;99.90
1137;DHT22;557;48.466;7.950;2023-12-22T07:02:41;9.50;1.00
1137;DHT22;557;48.466;7.950;2023-12-22T07:05:31;9.50;1.00
1137;DHT22;557;48.466;7.950;2023-12-22T07:07:57;9.50;21.10
1137;DHT22;557;48.466;7.950;2023-12-22T07:10:26;9.50;1.00
1137;DHT22;557;48.466;7.950;2023-12-22T07:12:52;9.40;1.00
1137;DHT22;557;48.466;7.950;2023-12-22T07:15:19;9.40;1.00
1137;DHT22;557;48.466;7.950;2023-12-22T07:17:46;9.40;1.00
1137;DHT22;557;48.466;7.950;2023-12-22T07:20:13;9.40;1.00
1137;DHT22;557;48.466;7.950;2023-12-22T07:22:40;9.30;99.90
1137;DHT22;557;48.466;7.950;2023-12-22T07:25:08;9.30;99.90
1137;DHT22;557;48.466;7.950;2023-12-22T07:27:36;9.30;1.00
1137;DHT22;557;48.466;7.950;2023-12-22T07:30:04;9.20;1.00
1137;DHT22;557;48.466;7.950;2023-12-22T07:32:31;9.20;32.00
1137;DHT22;557;48.466;7.950;2023-12-22T07:34:58;9.20;63.30
1137;DHT22;557;48.466;7.950;2023-12-22T07:37:25;9.20;99.90
1137;DHT22;557;48.466;7.950;2023-12-22T07:39:51;9.10;99.90
1137;DHT22;557;48.466;7.950;2023-12-22T07:42:18;9.10;99.90
1137;DHT22;557;48.466;7.950;2023-12-22T07:44:46;9.10;99.90
1137;DHT22;557;48.466;7.950;2023-12-22T07:47:13;9.10;99.90
1137;DHT22;557;48.466;7.950;2023-12-22T07:49:40;9.10;99.90
1137;DHT22;557;48.466;7.950;2023-12-22T07:52:07;9.10;99.90
1137;DHT22;557;48.466;7.950;2023-12-22T07:54:34;9.10;99.90
1137;DHT22;557;48.466;7.950;2023-12-22T07:57:01;9.10;99.90
1137;DHT22;557;48.466;7.950;2023-12-22T07:59:28;9.10;1.00
1137;DHT22;557;48.466;7.950;2023-12-22T08:01:56;9.10;1.00
1137;DHT22;557;48.466;7.950;2023-12-22T08:04:23;9.10;1.00
1137;DHT22;557;48.466;7.950;2023-12-22T08:06:49;9.10;1.00
1137;DHT22;557;48.466;7.950;2023-12-22T08:09:17;9.10;1.00
1137;DHT22;557;48.466;7.950;2023-12-22T08:11:44;9.10;1.00
1137;DHT22;557;48.466;7.950;2023-12-22T08:14:12;9.10;1.00
1137;DHT22;557;48.466;7.950;2023-12-22T08:16:39;9.00;1.00
1137;DHT22;557;48.466;7.950;2023-12-22T08:19:07;9.00;1.00
1137;DHT22;557;48.466;7.950;2023-12-22T08:21:34;9.00;1.00
1137;DHT22;557;48.466;7.950;2023-12-22T08:24:01;9.00;1.00
1137;DHT22;557;48.466;7.950;2023-12-22T08:26:28;9.00;1.00
1137;DHT22;557;48.466;7.950;2023-12-22T08:28:54;9.00;1.00
1137;DHT22;557;48.466;7.950;2023-12-22T08:31:21;9.00;1.00
1137;DHT22;557;48.466;7.950;2023-12-22T08:33:48;9.10;1.00
1137;DHT22;557;48.466;7.950;2023-12-22T08:36:16;9.10;1.00
1137;DHT22;557;48.466;7.950;2023-12-22T08:38:43;9.10;1.00
1137;DHT22;557;48.466;7.950;2023-12-22T08:41:10;9.10;1.00
1137;DHT22;557;48.466;7.950;2023-12-22T08:43:37;9.10;1.00
1137;DHT22;557;48.466;7.950;2023-12-22T08:46:05;9.10;1.00
1137;DHT22;557;48.466;7.950;2023-12-22T08:48:32;9.20;1.00
1137;DHT22;557;48.466;7.950;2023-12-22T08:50:59;9.20;99.90
1137;DHT22;557;48.466;7.950;2023-12-22T08:53:27;9.20;99.90
1137;DHT22;557;48.466;7.950;2023-12-22T08:55:55;9.20;99.90
1137;DHT22;557;48.466;7.950;2023-12-22T08:58:22;9.30;99.90
1137;DHT22;557;48.466;7.950;2023-12-22T09:00:49;9.30;99.90
1137;DHT22;557;48.466;7.950;2023-12-22T09:03:17;9.30;99.90
1137;DHT22;557;48.466;7.950;2023-12-22T09:05:43;9.30;99.90
1137;DHT22;557;48.466;7.950;2023-12-22T09:08:10;9.30;99.90
1137;DHT22;557;48.466;7.950;2023-12-22T09:10:38;9.40;99.90
1137;DHT22;557;48.466;7.950;2023-12-22T09:13:05;9.40;99.90
1137;DHT22;557;48.466;7.950;2023-12-22T09:15:32;9.40;99.90
1137;DHT22;557;48.466;7.950;2023-12-22T09:17:59;9.30;99.90
1137;DHT22;557;48.466;7.950;2023-12-22T09:20:26;9.30;99.90
1137;DHT22;557;48.466;7.950;2023-12-22T09:22:54;9.30;99.90
1137;DHT22;557;48.466;7.950;2023-12-22T09:25:23;9.30;99.90
1137;DHT22;557;48.466;7.950;2023-12-22T09:27:53;9.30;99.90
1137;DHT22;557;48.466;7.950;2023-12-22T09:30:19;9.40;99.90
1137;DHT22;557;48.466;7.950;2023-12-22T09:32:47;9.40;99.90
1137;DHT22;557;48.466;7.950;2023-12-22T09:35:14;9.40;1.00
1137;DHT22;557;48.466;7.950;2023-12-22T09:37:41;9.40;1.00
1137;DHT22;557;48.466;7.950;2023-12-22T09:40:09;9.40;99.90
1137;DHT22;557;48.466;7.950;2023-12-22T09:42:38;9.40;1.00
1137;DHT22;557;48.466;7.950;2023-12-22T09:45:11;9.40;1.00
1137;DHT22;557;48.466;7.950;2023-12-22T09:47:40;9.40;1.00
1137;DHT22;557;48.466;7.950;2023-12-22T09:50:08;9.40;1.00
1137;DHT22;557;48.466;7.950;2023-12-22T09:52:36;9.40;1.00
1137;DHT22;557;48.466;7.950;2023-12-22T09:55:03;9.50;1.00
1137;DHT22;557;48.466;7.950;2023-12-22T09:57:33;9.40;1.00
1137;DHT22;557;48.466;7.950;2023-12-22T10:00:00;9.50;1.00
1137;DHT22;557;48.466;7.950;2023-12-22T10:02:33;9.40;1.00
1137;DHT22;557;48.466;7.950;2023-12-22T10:05:00;9.50;1.00
1137;DHT22;557;48.466;7.950;2023-12-22T10:07:28;9.50;99.90
1137;DHT22;557;48.466;7.950;2023-12-22T10:09:57;9.50;99.90
1137;DHT22;557;48.466;7.950;2023-12-22T10:12:25;9.40;99.90
1137;DHT22;557;48.466;7.950;2023-12-22T10:14:53;9.40;1.00
1137;DHT22;557;48.466;7.950;2023-12-22T10:17:20;9.20;1.00
1137;DHT22;557;48.466;7.950;2023-12-22T10:19:49;9.00;1.00
1137;DHT22;557;48.466;7.950;2023-12-22T10:22:15;9.00;1.00
1137;DHT22;557;48.466;7.950;2023-12-22T10:24:45;8.90;21.20
1137;DHT22;557;48.466;7.950;2023-12-22T10:27:14;8.80;36.70
1137;DHT22;557;48.466;7.950;2023-12-22T10:29:42;8.80;84.50
1137;DHT22;557;48.466;7.950;2023-12-22T10:32:09;8.70;99.90
1137;DHT22;557;48.466;7.950;2023-12-22T10:34:35;8.60;99.90
1137;DHT22;557;48.466;7.950;2023-12-22T10:37:04;8.60;99.90
1137;DHT22;557;48.466;7.950;2023-12-22T10:39:32;8.60;99.90
1137;DHT22;557;48.466;7.950;2023-12-22T10:42:00;8.50;99.90
1137;DHT22;557;48.466;7.950;2023-12-22T10:44:27;8.40;99.90
1137;DHT22;557;48.466;7.950;2023-12-22T10:46:55;8.40;99.90
1137;DHT22;557;48.466;7.950;2023-12-22T10:49:23;8.30;99.90
1137;DHT22;557;48.466;7.950;2023-12-22T10:51:50;8.20;99.90
1137;DHT22;557;48.466;7.950;2023-12-22T10:54:19;8.20;99.90
1137;DHT22;557;48.466;7.950;2023-12-22T10:56:46;8.20;99.90
1137;DHT22;557;48.466;7.950;2023-12-22T10:59:16;8.10;99.90
1137;DHT22;557;48.466;7.950;2023-12-22T11:01:45;8.10;99.90
1137;DHT22;557;48.466;7.950;2023-12-22T11:04:17;8.10;99.90
1137;DHT22;557;48.466;7.950;2023-12-22T11:06:47;8.00;99.90
1137;DHT22;557;48.466;7.950;2023-12-22T11:09:16;8.10;99.90
1137;DHT22;557;48.466;7.950;2023-12-22T11:11:45;8.10;99.90
1137;DHT22;557;48.466;7.950;2023-12-22T11:14:13;8.10;99.90
1137;DHT22;557;48.466;7.950;2023-12-22T11:16:41;8.10;99.90
1137;DHT22;557;48.466;7.950;2023-12-22T11:19:12;8.10;99.90
1137;DHT22;557;48.466;7.950;2023-12-22T11:21:40;8.20;99.90
1137;DHT22;557;48.466;7.950;2023-12-22T11:24:07;8.20;99.90
1137;DHT22;557;48.466;7.950;2023-12-22T11:26:35;8.20;99.90
1137;DHT22;557;48.466;7.950;2023-12-22T11:29:03;8.20;99.90
1137;DHT22;557;48.466;7.950;2023-12-22T11:31:33;8.20;99.90
1137;DHT22;557;48.466;7.950;2023-12-22T11:34:01;8.20;99.90
1137;DHT22;557;48.466;7.950;2023-12-22T11:36:29;8.20;99.90
1137;DHT22;557;48.466;7.950;2023-12-22T11:38:57;8.20;99.90
1137;DHT22;557;48.466;7.950;2023-12-22T11:41:29;8.20;99.90
1137;DHT22;557;48.466;7.950;2023-12-22T11:43:58;8.20;99.90
1137;DHT22;557;48.466;7.950;2023-12-22T11:46:26;8.10;99.90
1137;DHT22;557;48.466;7.950;2023-12-22T11:48:55;8.10;99.90
1137;DHT22;557;48.466;7.950;2023-12-22T11:51:22;8.10;99.90
1137;DHT22;557;48.466;7.950;2023-12-22T11:53:51;8.10;99.90
1137;DHT22;557;48.466;7.950;2023-12-22T11:56:18;8.10;99.90
1137;DHT22;557;48.466;7.950;2023-12-22T11:58:47;8.10;99.90
1137;DHT22;557;48.466;7.950;2023-12-22T12:01:18;8.10;99.90
1137;DHT22;557;48.466;7.950;2023-12-22T12:03:50;8.10;99.90
1137;DHT22;557;48.466;7.950;2023-12-22T12:06:31;8.10;99.90
1137;DHT22;557;48.466;7.950;2023-12-22T12:08:59;8.10;99.90
1137;DHT22;557;48.466;7.950;2023-12-22T12:14:33;8.10;99.90
1137;DHT22;557;48.466;7.950;2023-12-22T12:17:06;8.10;99.90
1137;DHT22;557;48.466;7.950;2023-12-22T12:19:35;8.20;99.90
1137;DHT22;557;48.466;7.950;2023-12-22T12:22:03;8.20;99.90
1137;DHT22;557;48.466;7.950;2023-12-22T12:24:31;8.20;99.90
1137;DHT22;557;48.466;7.950;2023-12-22T12:26:58;8.20;99.90
1137;DHT22;557;48.466;7.950;2023-12-22T12:29:25;8.20;99.90
1137;DHT22;557;48.466;7.950;2023-12-22T12:31:52;8.30;99.90
1137;DHT22;557;48.466;7.950;2023-12-22T12:34:18;8.30;99.90
1137;DHT22;557;48.466;7.950;2023-12-22T12:36:48;8.30;99.90
1137;DHT22;557;48.466;7.950;2023-12-22T12:39:15;8.30;99.90
1137;DHT22;557;48.466;7.950;2023-12-22T12:41:49;8.30;99.90
1137;DHT22;557;48.466;7.950;2023-12-22T12:44:20;8.30;99.90
1137;DHT22;557;48.466;7.950;2023-12-22T12:46:48;8.30;99.90
1137;DHT22;557;48.466;7.950;2023-12-22T12:49:15;8.40;99.90
1137;DHT22;557;48.466;7.950;2023-12-22T12:51:43;8.40;99.90
1137;DHT22;557;48.466;7.950;2023-12-22T12:54:13;8.40;99.90
1137;DHT22;557;48.466;7.950;2023-12-22T12:56:41;8.40;99.90
1137;DHT22;557;48.466;7.950;2023-12-22T12:59:08;8.40;99.90
1137;DHT22;557;48.466;7.950;2023-12-22T13:01:38;8.40;99.90
1137;DHT22;557;48.466;7.950;2023-12-22T13:04:05;8.50;99.90
1137;DHT22;557;48.466;7.950;2023-12-22T13:06:32;8.50;99.90
1137;DHT22;557;48.466;7.950;2023-12-22T13:09:00;8.50;99.90
1137;DHT22;557;48.466;7.950;2023-12-22T13:11:29;8.50;99.90
1137;DHT22;557;48.466;7.950;2023-12-22T13:13:57;8.50;99.90
1137;DHT22;557;48.466;7.950;2023-12-22T13:16:25;8.60;99.90
1137;DHT22;557;48.466;7.950;2023-12-22T13:18:55;8.60;99.90
1137;DHT22;557;48.466;7.950;2023-12-22T13:21:23;8.60;99.90
1137;DHT22;557;48.466;7.950;2023-12-22T13:24:07;8.60;99.90
1137;DHT22;557;48.466;7.950;2023-12-22T13:26:36;8.60;99.90
1137;DHT22;557;48.466;7.950;2023-12-22T13:29:03;8.60;99.90
1137;DHT22;557;48.466;7.950;2023-12-22T13:31:30;8.70;99.90
1137;DHT22;557;48.466;7.950;2023-12-22T13:33:58;8.70;99.90
1137;DHT22;557;48.466;7.950;2023-12-22T13:36:25;8.70;99.90
1137;DHT22;557;48.466;7.950;2023-12-22T13:38:52;8.70;99.90
1137;DHT22;557;48.466;7.950;2023-12-22T13:41:19;8.80;99.90
1137;DHT22;557;48.466;7.950;2023-12-22T13:43:50;8.80;99.90
1137;DHT22;557;48.466;7.950;2023-12-22T13:46:18;8.80;99.90
1137;DHT22;557;48.466;7.950;2023-12-22T13:48:45;8.80;99.90
1137;DHT22;557;48.466;7.950;2023-12-22T13:51:12;8.90;99.90
1137;DHT22;557;48.466;7.950;2023-12-22T13:53:47;8.90;99.90
1137;DHT22;557;48.466;7.950;2023-12-22T13:56:14;8.90;99.90
1137;DHT22;557;48.466;7.950;2023-12-22T13:58:44;8.90;99.90
1137;DHT22;557;48.466;7.950;2023-12-22T14:01:14;8.90;99.90
1137;DHT22;557;48.466;7.950;2023-12-22T14:03:42;8.90;99.90
1137;DHT22;557;48.466;7.950;2023-12-22T14:06:08;8.90;99.90
1137;DHT22;557;48.466;7.950;2023-12-22T14:08:38;8.90;99.90
1137;DHT22;557;48.466;7.950;2023-12-22T14:11:06;8.90;99.90
1137;DHT22;557;48.466;7.950;2023-12-22T14:17:12;9.00;99.90
1137;DHT22;557;48.466;7.950;2023-12-22T14:19:42;9.00;99.90
1137;DHT22;557;48.466;7.950;2023-12-22T14:22:11;9.00;99.90
1137;DHT22;557;48.466;7.950;2023-12-22T14:24:39;9.00;99.90
1137;DHT22;557;48.466;7.950;2023-12-22T14:27:10;9.00;99.90
1137;DHT22;557;48.466;7.950;2023-12-22T14:29:39;9.00;99.90
1137;DHT22;557;48.466;7.950;2023-12-22T14:32:06;9.10;99.90
1137;DHT22;557;48.466;7.950;2023-12-22T14:34:35;9.10;99.90
1137;DHT22;557;48.466;7.950;2023-12-22T14:37:03;9.10;99.90
1137;DHT22;557;48.466;7.950;2023-12-22T14:39:30;9.10;99.90
1137;DHT22;557;48.466;7.950;2023-12-22T14:41:57;9.10;99.90
1137;DHT22;557;48.466;7.950;2023-12-22T14:44:24;9.10;99.90
1137;DHT22;557;48.466;7.950;2023-12-22T14:46:51;9.20;99.90
1137;DHT22;557;48.466;7.950;2023-12-22T14:49:18;9.20;99.90
1137;DHT22;557;48.466;7.950;2023-12-22T14:51:46;9.20;99.90
1137;DHT22;557;48.466;7.950;2023-12-22T14:54:19;9.30;99.90
1137;DHT22;557;48.466;7.950;2023-12-22T14:56:46;9.30;99.90
1137;DHT22;557;48.466;7.950;2023-12-22T14:59:14;9.30;99.90
1137;DHT22;557;48.466;7.950;2023-12-22T15:01:44;9.30;99.90
1137;DHT22;557;48.466;7.950;2023-12-22T15:04:19;9.30;99.90
1137;DHT22;557;48.466;7.950;2023-12-22T15:06:48;9.30;99.90
1137;DHT22;557;48.466;7.950;2023-12-22T15:09:16;9.30;99.90
1137;DHT22;557;48.466;7.950;2023-12-22T15:11:44;9.40;99.90
1137;DHT22;557;48.466;7.950;2023-12-22T15:14:11;9.30;99.90
1137;DHT22;557;48.466;7.950;2023-12-22T15:16:39;9.40;99.90
1137;DHT22;557;48.466;7.950;2023-12-22T15:19:10;9.30;99.90
1137;DHT22;557;48.466;7.950;2023-12-22T15:21:40;9.30;99.90
1137;DHT22;557;48.466;7.950;2023-12-22T15:24:12;9.30;99.90
1137;DHT22;557;48.466;7.950;2023-12-22T15:26:39;9.30;99.90
1137;DHT22;557;48.466;7.950;2023-12-22T15:29:06;9.20;99.90
1137;DHT22;557;48.466;7.950;2023-12-22T15:31:33;9.30;99.90
1137;DHT22;557;48.466;7.950;2023-12-22T15:36:52;9.20;99.90
1137;DHT22;557;48.466;7.950;2023-12-22T15:39:31;9.20;99.90
1137;DHT22;557;48.466;7.950;2023-12-22T15:41:58;9.10;99.90
1137;DHT22;557;48.466;7.950;2023-12-22T15:44:52;9.20;99.90
1137;DHT22;557;48.466;7.950;2023-12-22T15:48:14;9.20;99.90
1137;DHT22;557;48.466;7.950;2023-12-22T15:54:54;9.20;99.90
1137;DHT22;557;48.466;7.950;2023-12-22T15:57:51;9.20;99.90
1137;DHT22;557;48.466;7.950;2023-12-22T16:04:24;9.20;99.90
1137;DHT22;557;48.466;7.950;2023-12-22T16:07:06;9.20;99.90
1137;DHT22;557;48.466;7.950;2023-12-22T16:10:23;9.20;99.90
1137;DHT22;557;48.466;7.950;2023-12-22T16:16:56;9.20;99.90
1137;DHT22;557;48.466;7.950;2023-12-22T16:24:04;9.30;99.90
1137;DHT22;557;48.466;7.950;2023-12-22T16:31:15;9.40;99.90
1137;DHT22;557;48.466;7.950;2023-12-22T16:34:23;9.30;99.90
1137;DHT22;557;48.466;7.950;2023-12-22T16:37:26;9.40;99.90
1137;DHT22;557;48.466;7.950;2023-12-22T16:39:53;9.40;99.90
1137;DHT22;557;48.466;7.950;2023-12-22T16:42:20;9.30;99.90
1137;DHT22;557;48.466;7.950;2023-12-22T16:44:48;9.30;99.90
1137;DHT22;557;48.466;7.950;2023-12-22T16:47:17;9.40;99.90
1137;DHT22;557;48.466;7.950;2023-12-22T16:53:40;9.40;99.90
1137;DHT22;557;48.466;7.950;2023-12-22T16:56:14;9.40;99.90
1137;DHT22;557;48.466;7.950;2023-12-22T16:59:01;9.40;99.90
1137;DHT22;557;48.466;7.950;2023-12-22T17:05:22;9.30;99.90
1137;DHT22;557;48.466;7.950;2023-12-22T17:07:54;9.30;99.90
1137;DHT22;557;48.466;7.950;2023-12-22T17:11:03;9.30;99.90
1137;DHT22;557;48.466;7.950;2023-12-22T17:13:44;9.30;99.90
1137;DHT22;557;48.466;7.950;2023-12-22T17:19:36;9.30;99.90
1137;DHT22;557;48.466;7.950;2023-12-22T17:25:13;9.30;99.90
1137;DHT22;557;48.466;7.950;2023-12-22T17:27:46;9.30;99.90
1137;DHT22;557;48.466;7.950;2023-12-22T17:30:13;9.30;99.90
1137;DHT22;557;48.466;7.950;2023-12-22T17:32:42;9.30;99.90
1137;DHT22;557;48.466;7.950;2023-12-22T17:35:09;9.20;99.90